Time;durP1;ratioP1;P1;durP2;ratioP2;P2;SDS_P1;SDS_P2;PMS_P1;PMS_P2;Temp;Humidity;BMP_temperature;BMP_pressure;BME280_temperature;BME280_humidity;BME280_pressure;Samples;Min_cycle;Max_cycle;Signal;HPM_P1;HPM_P2
2023/08/06 00:01:25;;;;;;;6.07;3.58;;;;;;;15.97;100.00;100277.06;5032973;28;20119;-64
2023/08/06 00:03:51;;;;;;;7.38;3.72;;;;;;;15.99;100.00;100278.81;5032821;28;20022;-63
2023/08/06 00:06:16;;;;;;;5.85;3.67;;;;;;;15.99;100.00;100280.59;5032730;28;20357;-64
2023/08/06 00:08:42;;;;;;;4.93;3.47;;;;;;;16.02;100.00;100277.88;5033133;28;20537;-63
2023/08/06 00:11:08;;;;;;;7.13;4.68;;;;;;;16.03;100.00;100275.16;5031656;28;20022;-64
2023/08/06 00:13:33;;;;;;;9.43;3.60;;;;;;;16.06;100.00;100273.34;5031442;28;20030;-63
2023/08/06 00:16:09;;;;;;;6.10;3.35;;;;;;;16.08;100.00;100274.19;5032592;28;20087;-64
2023/08/06 00:18:35;;;;;;;5.40;3.33;;;;;;;16.07;100.00;100272.44;5032718;28;20025;-64
2023/08/06 00:21:00;;;;;;;6.13;3.33;;;;;;;16.05;100.00;100272.47;5032619;28;20037;-63
2023/08/06 00:23:25;;;;;;;5.93;3.40;;;;;;;16.08;100.00;100260.88;5032583;28;20057;-63
2023/08/06 00:25:51;;;;;;;4.97;3.50;;;;;;;16.09;100.00;100266.16;5032737;28;20363;-64
2023/08/06 00:28:16;;;;;;;4.65;3.13;;;;;;;16.06;100.00;100265.34;5032599;28;20088;-63
2023/08/06 00:30:41;;;;;;;4.55;3.40;;;;;;;16.07;100.00;100264.44;5032578;28;20390;-64
2023/08/06 00:33:07;;;;;;;5.30;3.30;;;;;;;16.01;100.00;100263.66;5032585;28;20025;-64
2023/08/06 00:35:32;;;;;;;7.30;3.30;;;;;;;16.03;100.00;100260.97;5032481;28;20032;-64
2023/08/06 00:37:57;;;;;;;4.90;3.28;;;;;;;16.02;100.00;100259.22;5032470;28;20057;-64
2023/08/06 00:40:23;;;;;;;7.43;3.33;;;;;;;16.01;100.00;100258.31;5032479;28;20033;-64
2023/08/06 00:42:48;;;;;;;4.88;3.28;;;;;;;16.01;100.00;100262.78;5032451;28;20071;-64
2023/08/06 00:45:14;;;;;;;6.10;3.28;;;;;;;15.96;100.00;100259.31;5032365;28;20098;-63
2023/08/06 00:47:40;;;;;;;6.18;3.38;;;;;;;15.93;100.00;100264.72;5031149;28;20029;-64
2023/08/06 00:50:07;;;;;;;5.90;3.13;;;;;;;15.91;100.00;100251.44;5032662;28;20029;-64
2023/08/06 00:52:33;;;;;;;5.03;3.30;;;;;;;15.92;100.00;100250.50;5036003;28;20049;-64
2023/08/06 00:54:59;;;;;;;9.90;3.10;;;;;;;15.92;100.00;100247.84;5036047;28;20040;-64
2023/08/06 00:57:25;;;;;;;4.63;3.10;;;;;;;15.91;100.00;100251.44;5036029;28;20033;-63
2023/08/06 00:59:52;;;;;;;6.93;3.10;;;;;;;15.91;100.00;100250.56;5036105;28;20045;-64
2023/08/06 01:02:17;;;;;;;6.28;3.08;;;;;;;15.86;100.00;100252.44;5035680;28;20064;-64
2023/08/06 01:04:43;;;;;;;6.57;3.17;;;;;;;15.85;100.00;100256.91;5035832;28;20033;-63
2023/08/06 01:07:35;;;;;;;5.32;3.00;;;;;;;15.78;100.00;100250.81;5035726;28;20087;-64
2023/08/06 01:10:16;;;;;;;7.00;3.03;;;;;;;15.76;100.00;100252.63;5035827;28;20040;-63
2023/08/06 01:12:51;;;;;;;5.72;3.30;;;;;;;15.76;100.00;100249.09;5035618;28;20143;-63
2023/08/06 01:15:22;;;;;;;7.00;3.03;;;;;;;15.77;100.00;100261.50;5035465;28;20037;-63
2023/08/06 01:17:48;;;;;;;5.35;2.90;;;;;;;15.77;100.00;100249.06;5035479;28;20037;-63
2023/08/06 01:20:14;;;;;;;5.05;3.08;;;;;;;15.76;100.00;100247.31;5035507;28;20080;-63
2023/08/06 01:22:39;;;;;;;6.30;3.17;;;;;;;15.76;100.00;100251.75;5035406;28;20034;-63
2023/08/06 01:25:05;;;;;;;6.30;3.10;;;;;;;15.73;100.00;100249.16;5035669;28;20017;-63
2023/08/06 01:27:34;;;;;;;6.60;2.75;;;;;;;15.75;100.00;100253.53;5035181;28;20494;-64
2023/08/06 01:30:06;;;;;;;7.20;3.17;;;;;;;15.78;100.00;100250.81;5035449;28;20029;-63
2023/08/06 01:32:34;;;;;;;4.05;2.92;;;;;;;15.81;100.00;100254.34;5035570;28;20034;-63
2023/08/06 01:35:02;;;;;;;4.50;3.10;;;;;;;15.82;100.00;100251.63;5035478;28;20064;-63
2023/08/06 01:37:27;;;;;;;5.07;2.80;;;;;;;15.83;100.00;100252.50;5035227;28;20026;-64
2023/08/06 01:39:53;;;;;;;6.25;3.10;;;;;;;15.83;100.00;100249.84;5035124;28;20391;-64
2023/08/06 01:42:18;;;;;;;9.20;3.08;;;;;;;15.82;100.00;100250.75;5035141;28;20120;-64
2023/08/06 01:44:44;;;;;;;5.68;3.17;;;;;;;15.80;100.00;100255.22;5034919;28;20029;-64
2023/08/06 01:47:09;;;;;;;7.38;2.83;;;;;;;15.81;100.00;100247.22;5035256;28;20112;-63
2023/08/06 01:49:34;;;;;;;5.05;3.22;;;;;;;15.84;100.00;100256.91;5035029;28;20021;-64
2023/08/06 01:52:00;;;;;;;5.20;3.05;;;;;;;15.80;100.00;100252.56;5024421;28;20434;-64
2023/08/06 01:54:26;;;;;;;4.13;3.05;;;;;;;15.82;100.00;100248.09;5034963;28;20041;-64
2023/08/06 01:56:51;;;;;;;5.45;3.08;;;;;;;15.81;100.00;100252.53;5034761;28;20033;-64
2023/08/06 01:59:16;;;;;;;7.90;2.92;;;;;;;15.82;100.00;100250.75;5034829;28;20030;-64
2023/08/06 02:01:42;;;;;;;6.68;3.10;;;;;;;15.81;100.00;100247.22;5034748;28;20022;-63
2023/08/06 02:04:07;;;;;;;7.47;3.10;;;;;;;15.75;100.00;100256.19;5032626;28;20029;-64
2023/08/06 02:06:33;;;;;;;5.28;3.15;;;;;;;15.80;100.00;100260.53;5034834;28;20021;-64
2023/08/06 02:08:58;;;;;;;4.03;2.80;;;;;;;15.79;100.00;100249.00;5050121;28;20029;-64
2023/08/06 02:11:23;;;;;;;6.38;3.05;;;;;;;15.75;100.00;100256.19;5034599;28;20032;-64
2023/08/06 02:13:49;;;;;;;8.52;3.10;;;;;;;15.76;100.00;100247.31;5050131;28;20033;-64
2023/08/06 02:16:14;;;;;;;3.50;2.65;;;;;;;15.73;100.00;100250.03;5034350;28;20040;-63
2023/08/06 02:18:39;;;;;;;8.60;3.15;;;;;;;15.73;100.00;100246.50;5034519;28;20445;-64
2023/08/06 02:21:05;;;;;;;4.18;2.78;;;;;;;15.74;100.00;100248.22;5034515;28;20026;-63
2023/08/06 02:23:30;;;;;;;5.20;3.05;;;;;;;15.76;100.00;100246.44;5033128;28;20084;-63
2023/08/06 02:26:03;;;;;;;6.05;2.92;;;;;;;15.71;100.00;100237.63;5034254;28;20036;-63
2023/08/06 02:28:29;;;;;;;7.72;2.90;;;;;;;15.75;100.00;100250.84;5034188;28;20033;-63
2023/08/06 02:30:54;;;;;;;7.43;3.08;;;;;;;15.77;100.00;100257.03;5034085;28;20029;-64
2023/08/06 02:33:20;;;;;;;5.35;3.10;;;;;;;15.77;100.00;100249.06;5034438;28;20036;-64
2023/08/06 02:35:45;;;;;;;5.55;3.20;;;;;;;15.78;100.00;100245.47;5034112;28;20501;-64
2023/08/06 02:38:11;;;;;;;10.57;3.38;;;;;;;15.81;100.00;100244.56;5034013;28;20406;-63
2023/08/06 02:40:36;;;;;;;6.10;2.83;;;;;;;15.80;100.00;100242.78;5033954;28;20033;-64
2023/08/06 02:43:02;;;;;;;8.07;3.10;;;;;;;15.83;100.00;100239.19;5034215;28;20040;-64
2023/08/06 02:45:27;;;;;;;5.57;2.90;;;;;;;15.83;100.00;100245.38;5033670;28;20029;-63
2023/08/06 02:47:52;;;;;;;6.53;2.63;;;;;;;15.86;100.00;100237.34;5033795;28;20091;-64
2023/08/06 02:50:18;;;;;;;6.18;2.78;;;;;;;15.85;100.00;100238.25;5034116;28;20510;-64
2023/08/06 02:52:43;;;;;;;5.78;2.88;;;;;;;15.85;100.00;100234.72;5033617;28;20522;-63
2023/08/06 02:55:10;;;;;;;5.68;2.80;;;;;;;15.84;100.00;100238.25;5033761;28;20025;-64
2023/08/06 02:57:35;;;;;;;7.20;2.80;;;;;;;15.85;100.00;100229.38;5033999;28;20097;-64
2023/08/06 03:00:01;;;;;;;4.45;2.72;;;;;;;15.85;100.00;100232.06;5033612;28;20487;-64
2023/08/06 03:02:26;;;;;;;6.80;2.85;;;;;;;15.85;100.00;100221.38;5033633;28;20036;-63
2023/08/06 03:04:51;;;;;;;6.90;2.70;;;;;;;15.84;100.00;100228.47;5033809;28;20431;-64
2023/08/06 03:07:17;;;;;;;6.68;2.60;;;;;;;15.85;100.00;100230.25;5033541;28;20467;-64
2023/08/06 03:09:42;;;;;;;5.32;3.03;;;;;;;15.85;100.00;100232.06;5033480;28;20075;-64
2023/08/06 03:12:08;;;;;;;5.97;2.80;;;;;;;15.82;100.00;100222.31;5033507;28;20499;-64
2023/08/06 03:14:33;;;;;;;4.47;3.00;;;;;;;15.85;100.00;100232.06;5033208;28;20037;-64
2023/08/06 03:16:58;;;;;;;6.85;2.97;;;;;;;15.87;100.00;100236.41;5033429;28;20029;-64
2023/08/06 03:19:24;;;;;;;6.15;3.00;;;;;;;15.88;100.00;100238.16;5033414;28;20083;-63
2023/08/06 03:21:49;;;;;;;6.55;3.00;;;;;;;15.86;100.00;100232.00;5033179;28;20083;-64
2023/08/06 03:24:15;;;;;;;6.72;2.88;;;;;;;15.88;100.00;100231.97;5032215;28;20040;-63
2023/08/06 03:26:40;;;;;;;6.50;2.90;;;;;;;15.90;100.00;100239.03;5033316;28;20088;-63
2023/08/06 03:29:05;;;;;;;5.70;3.53;;;;;;;15.85;100.00;100232.91;5033265;28;20032;-64
2023/08/06 03:31:31;;;;;;;5.05;3.22;;;;;;;15.88;100.00;100238.16;5032994;28;20044;-63
2023/08/06 03:33:56;;;;;;;4.50;3.20;;;;;;;15.86;100.00;100236.47;5033121;28;20026;-64
2023/08/06 03:36:21;;;;;;;5.28;3.30;;;;;;;15.84;100.00;100232.94;5033010;28;20049;-64
2023/08/06 03:38:47;;;;;;;5.00;3.67;;;;;;;15.82;100.00;100235.63;5033009;28;20033;-64
2023/08/06 03:41:12;;;;;;;6.13;3.55;;;;;;;15.82;100.00;100227.66;5032946;28;20104;-63
2023/08/06 03:43:37;;;;;;;5.93;3.60;;;;;;;15.88;100.00;100242.63;5031991;28;20064;-63
2023/08/06 03:46:03;;;;;;;5.47;3.85;;;;;;;15.87;100.00;100235.53;5032939;28;20108;-64
2023/08/06 03:48:28;;;;;;;7.88;3.67;;;;;;;15.86;100.00;100240.00;5033216;28;20033;-63
2023/08/06 03:50:54;;;;;;;6.78;3.72;;;;;;;15.83;100.00;100229.41;5033008;28;20399;-64
2023/08/06 03:53:19;;;;;;;6.32;3.53;;;;;;;15.81;100.00;100235.69;5031427;28;20085;-63
2023/08/06 03:55:45;;;;;;;5.07;3.70;;;;;;;15.79;100.00;100241.03;5033098;28;20375;-63
2023/08/06 03:58:10;;;;;;;7.13;4.10;;;;;;;15.77;100.00;100245.53;5033019;28;20029;-63
2023/08/06 04:00:35;;;;;;;7.75;3.90;;;;;;;15.78;100.00;100244.59;5032828;28;20036;-63
2023/08/06 04:03:01;;;;;;;9.48;4.20;;;;;;;15.76;100.00;100247.31;5048350;28;20056;-63
2023/08/06 04:05:26;;;;;;;5.65;3.97;;;;;;;15.76;100.00;100254.44;5032822;28;20061;-63
2023/08/06 04:07:51;;;;;;;6.75;3.95;;;;;;;15.77;100.00;100242.84;5032681;28;20044;-63
2023/08/06 04:10:17;;;;;;;4.70;3.83;;;;;;;15.76;100.00;100249.09;5032751;28;20030;-63
2023/08/06 04:12:42;;;;;;;5.55;3.80;;;;;;;15.78;100.00;100248.13;5048309;28;20026;-63
2023/08/06 04:15:08;;;;;;;6.55;3.90;;;;;;;15.78;100.00;100244.59;5032391;28;20022;-63
2023/08/06 04:17:33;;;;;;;5.88;3.70;;;;;;;15.78;100.00;100244.59;5032305;28;20037;-63
2023/08/06 04:19:59;;;;;;;4.47;3.85;;;;;;;15.78;100.00;100258.78;5032241;28;20030;-63
2023/08/06 04:22:24;;;;;;;7.35;3.97;;;;;;;15.81;100.00;100254.34;5031035;28;20025;-63
2023/08/06 04:24:50;;;;;;;5.93;3.83;;;;;;;15.83;100.00;100261.38;5032637;28;20021;-63
2023/08/06 04:27:16;;;;;;;5.00;3.50;;;;;;;15.84;100.00;100260.44;5033922;28;20034;-63
2023/08/06 04:29:42;;;;;;;5.78;4.00;;;;;;;15.85;100.00;100253.38;5036497;28;20022;-63
2023/08/06 04:32:09;;;;;;;6.28;3.85;;;;;;;15.90;100.00;100259.47;5036216;28;20393;-63
2023/08/06 04:34:36;;;;;;;5.65;3.60;;;;;;;15.93;100.00;100256.72;5034947;28;20418;-63
2023/08/06 04:37:02;;;;;;;6.20;3.78;;;;;;;15.92;100.00;100266.50;5036332;28;20389;-63
2023/08/06 04:39:27;;;;;;;5.75;3.83;;;;;;;15.93;100.00;100260.28;5034706;28;20465;-63
2023/08/06 04:41:53;;;;;;;8.05;3.90;;;;;;;15.97;100.00;100264.66;5035870;28;20101;-63
2023/08/06 04:44:18;;;;;;;5.85;3.60;;;;;;;15.99;100.00;100260.16;5035959;28;20040;-63
2023/08/06 04:46:44;;;;;;;6.95;4.00;;;;;;;16.02;100.00;100265.44;5036083;28;20028;-63
2023/08/06 04:49:09;;;;;;;6.18;3.60;;;;;;;16.03;100.00;100267.16;5035847;28;20048;-63
2023/08/06 04:51:35;;;;;;;7.05;3.60;;;;;;;16.08;100.00;100269.75;5035639;28;20072;-64
2023/08/06 04:54:00;;;;;;;5.53;3.90;;;;;;;16.14;100.00;100264.25;5035816;28;20092;-63
2023/08/06 04:56:26;;;;;;;8.52;4.10;;;;;;;16.15;100.00;100267.84;5035656;28;20061;-64
2023/08/06 04:58:52;;;;;;;7.30;3.97;;;;;;;16.22;100.00;100261.44;5035890;28;20030;-63
2023/08/06 05:01:17;;;;;;;7.07;4.25;;;;;;;16.26;100.00;100272.00;5035588;28;20057;-64
2023/08/06 05:03:43;;;;;;;5.97;3.88;;;;;;;16.32;100.00;100270.13;5035612;28;20032;-63
2023/08/06 05:06:08;;;;;;;6.20;3.65;;;;;;;16.35;100.00;100267.38;5035520;28;20033;-63
2023/08/06 05:08:34;;;;;;;6.88;3.75;;;;;;;16.37;100.00;100276.25;5035478;28;20479;-63
2023/08/06 05:10:59;;;;;;;4.75;3.35;;;;;;;16.42;100.00;100275.22;5035510;28;20036;-63
2023/08/06 05:13:25;;;;;;;6.80;4.00;;;;;;;16.45;100.00;100275.16;5035454;28;20033;-64
2023/08/06 05:15:50;;;;;;;6.00;3.80;;;;;;;16.48;100.00;100280.41;5035203;28;20029;-63
2023/08/06 05:18:16;;;;;;;6.80;4.20;;;;;;;16.49;100.00;100284.84;5035330;28;20022;-64
2023/08/06 05:20:42;;;;;;;7.63;4.10;;;;;;;16.51;100.00;100292.78;5035143;28;20029;-64
2023/08/06 05:23:08;;;;;;;6.13;3.72;;;;;;;16.58;100.00;100288.22;5035077;28;20471;-63
2023/08/06 05:25:37;;;;;;;6.88;3.80;;;;;;;16.66;100.00;100300.47;5035230;28;20026;-64
2023/08/06 05:28:03;;;;;;;6.97;3.72;;;;;;;16.65;100.00;100298.69;5035120;28;20371;-63
2023/08/06 05:30:28;;;;;;;5.93;4.07;;;;;;;16.70;100.00;100303.91;5017517;28;20025;-64
2023/08/06 05:32:55;;;;;;;7.35;4.30;;;;;;;16.76;100.00;100309.16;5034961;28;20036;-64
2023/08/06 05:35:20;;;;;;;6.78;3.88;;;;;;;16.82;100.00;100302.78;5035094;28;20479;-63
2023/08/06 05:37:46;;;;;;;7.85;4.40;;;;;;;16.89;100.00;100313.28;5033052;28;20028;-63
2023/08/06 05:40:11;;;;;;;6.70;4.35;;;;;;;16.91;100.00;100319.47;5034174;28;20026;-64
2023/08/06 05:42:37;;;;;;;5.43;4.00;;;;;;;16.98;100.00;100323.75;5034813;28;20332;-64
2023/08/06 05:45:02;;;;;;;7.15;4.15;;;;;;;16.96;100.00;100322.91;5034706;28;20064;-64
2023/08/06 05:47:28;;;;;;;8.35;3.90;;;;;;;16.97;100.00;100321.13;5034750;28;20024;-64
2023/08/06 05:49:53;;;;;;;6.88;4.00;;;;;;;16.97;100.00;100329.13;5016964;28;20029;-63
2023/08/06 05:52:18;;;;;;;10.20;4.35;;;;;;;17.01;100.00;100329.03;5034589;28;20069;-64
2023/08/06 05:54:44;;;;;;;5.35;3.13;;;;;;;17.06;100.00;100331.56;5034599;28;20033;-64
2023/08/06 05:57:09;;;;;;;6.03;4.13;;;;;;;17.07;100.00;100332.44;5034663;28;20033;-63
2023/08/06 05:59:35;;;;;;;6.78;3.88;;;;;;;17.14;100.00;100342.06;5000473;28;20029;-64
2023/08/06 06:02:00;;;;;;;6.20;3.60;;;;;;;17.18;100.00;100343.75;5034478;28;20037;-64
2023/08/06 06:04:26;;;;;;;7.43;3.70;;;;;;;17.19;100.00;100343.72;5034518;28;20032;-62
2023/08/06 06:06:51;;;;;;;10.20;3.50;;;;;;;17.27;100.00;100347.06;5016700;28;20391;-63
2023/08/06 06:09:17;;;;;;;7.18;3.58;;;;;;;17.28;100.00;100353.28;5034251;28;20025;-65
2023/08/06 06:11:42;;;;;;;6.35;3.60;;;;;;;17.28;100.00;100350.63;5034292;28;20391;-64
2023/08/06 06:14:07;;;;;;;9.25;3.78;;;;;;;17.31;100.00;100358.56;5034540;28;20045;-63
2023/08/06 06:16:34;;;;;;;5.03;3.30;;;;;;;17.28;100.00;100358.63;5034000;28;20495;-63
2023/08/06 06:18:59;;;;;;;7.60;3.70;;;;;;;17.31;100.00;100369.25;5034258;28;20075;-65
2023/08/06 06:21:25;;;;;;;7.75;3.70;;;;;;;17.33;100.00;100370.06;5034266;28;20029;-64
2023/08/06 06:23:51;;;;;;;6.05;3.72;;;;;;;17.31;100.00;100365.69;5034309;28;20364;-64
2023/08/06 06:26:18;;;;;;;8.48;4.13;;;;;;;17.33;100.00;100375.41;5033811;28;20021;-62
2023/08/06 06:28:44;;;;;;;8.90;4.20;;;;;;;17.37;100.00;100373.53;5033970;28;20056;-63
2023/08/06 06:31:09;;;;;;;5.75;4.10;;;;;;;17.38;100.00;100373.50;5032920;28;20053;-64
2023/08/06 06:33:34;;;;;;;6.97;4.43;;;;;;;17.32;100.00;100375.47;5016164;28;20113;-62
2023/08/06 06:36:00;;;;;;;7.75;4.68;;;;;;;17.35;100.00;100388.75;5034110;28;20481;-63
2023/08/06 06:38:25;;;;;;;9.82;4.57;;;;;;;17.33;100.00;100391.44;5033579;28;20483;-64
2023/08/06 06:40:57;;;;;;;8.05;4.72;;;;;;;17.30;100.00;100391.53;5033754;28;20048;-64
2023/08/06 06:43:23;;;;;;;7.47;5.00;;;;;;;17.26;100.00;100393.41;5033771;28;20040;-64
2023/08/06 06:45:53;;;;;;;7.40;5.00;;;;;;;17.23;100.00;100400.59;5033696;28;20399;-65
2023/08/06 06:48:19;;;;;;;7.40;4.47;;;;;;;17.23;100.00;100404.13;5033613;28;20033;-64
2023/08/06 06:50:48;;;;;;;7.68;4.97;;;;;;;17.24;100.00;100408.56;5033192;28;20390;-64
2023/08/06 06:53:13;;;;;;;7.10;4.85;;;;;;;17.26;100.00;100398.72;5033091;28;20060;-63
2023/08/06 06:55:39;;;;;;;9.20;4.88;;;;;;;17.23;100.00;100397.91;5033538;28;20030;-62
2023/08/06 06:58:04;;;;;;;6.88;4.97;;;;;;;17.19;100.00;100399.78;5033366;28;20029;-63
2023/08/06 07:00:29;;;;;;;9.40;5.15;;;;;;;17.13;100.00;100402.59;5033348;28;20501;-64
2023/08/06 07:02:55;;;;;;;7.43;5.00;;;;;;;17.11;100.00;100412.44;5033543;28;20437;-64
2023/08/06 07:05:20;;;;;;;7.35;4.90;;;;;;;17.09;100.00;100411.59;5015721;28;20467;-63
2023/08/06 07:07:46;;;;;;;7.18;4.47;;;;;;;17.05;100.00;100417.06;5033217;28;20033;-63
2023/08/06 07:10:11;;;;;;;10.45;4.60;;;;;;;17.02;100.00;100415.31;5033262;28;20383;-64
2023/08/06 07:12:36;;;;;;;6.75;3.75;;;;;;;16.92;100.00;100428.00;5033220;28;20037;-64
2023/08/06 07:15:06;;;;;;;3.65;2.80;;;;;;;16.77;100.00;100422.97;5033234;28;20064;-64
2023/08/06 07:17:31;;;;;;;4.78;2.90;;;;;;;16.67;100.00;100426.72;5015528;28;20068;-63
2023/08/06 07:19:56;;;;;;;3.20;2.58;;;;;;;16.58;100.00;100435.81;5015439;28;20036;-63
2023/08/06 07:22:22;;;;;;;2.58;2.20;;;;;;;16.57;100.00;100435.81;5033093;28;20471;-63
2023/08/06 07:24:47;;;;;;;2.00;1.80;;;;;;;16.48;100.00;100442.22;5033079;28;20025;-63
2023/08/06 07:27:13;;;;;;;3.42;1.83;;;;;;;16.37;100.00;100442.44;5033105;28;20104;-63
2023/08/06 07:29:38;;;;;;;3.33;1.90;;;;;;;16.34;100.00;100446.94;5033322;28;20063;-63
2023/08/06 07:32:04;;;;;;;4.10;2.13;;;;;;;16.26;100.00;100457.75;5032815;28;20154;-63
2023/08/06 07:34:29;;;;;;;1.60;1.50;;;;;;;16.13;100.00;100453.56;5032944;28;20052;-63
2023/08/06 07:36:55;;;;;;;2.03;1.60;;;;;;;16.07;100.00;100467.00;5032763;28;20026;-63
2023/08/06 07:39:20;;;;;;;2.95;1.70;;;;;;;15.98;100.00;100470.72;5033091;28;20383;-62
2023/08/06 07:41:46;;;;;;;1.63;1.52;;;;;;;15.93;100.00;100476.13;5032666;28;20498;-63
2023/08/06 07:44:11;;;;;;;2.67;1.70;;;;;;;15.84;100.00;100483.38;5032947;28;20025;-62
2023/08/06 07:46:38;;;;;;;3.45;2.00;;;;;;;15.83;100.00;100490.50;5032663;28;20032;-65
2023/08/06 07:49:03;;;;;;;4.13;1.80;;;;;;;15.80;100.00;100481.66;5032582;28;20467;-63
2023/08/06 07:51:28;;;;;;;3.88;2.20;;;;;;;15.74;100.00;100490.66;5034298;28;20064;-66
2023/08/06 07:53:54;;;;;;;5.63;2.20;;;;;;;15.69;100.00;100488.06;5032523;28;20432;-65
2023/08/06 07:56:19;;;;;;;3.08;2.22;;;;;;;15.65;100.00;100486.34;5032683;28;20037;-64
2023/08/06 07:58:45;;;;;;;6.40;2.42;;;;;;;15.58;100.00;100495.28;5032476;28;20033;-63
2023/08/06 08:01:10;;;;;;;4.18;2.67;;;;;;;15.61;100.00;100491.72;5032551;28;20495;-64
2023/08/06 08:03:35;;;;;;;4.93;2.50;;;;;;;15.57;100.00;100500.66;5036441;28;20026;-62
2023/08/06 08:06:01;;;;;;;3.58;2.70;;;;;;;15.63;100.00;100497.88;5036757;28;20056;-64
2023/08/06 08:08:26;;;;;;;6.03;3.28;;;;;;;15.58;100.00;100497.09;5036420;28;20116;-65
2023/08/06 08:10:52;;;;;;;3.38;2.90;;;;;;;15.58;100.00;100502.41;5036779;28;20026;-62
2023/08/06 08:13:17;;;;;;;5.00;3.50;;;;;;;15.52;100.00;100492.75;5036595;28;20026;-63
2023/08/06 08:15:43;;;;;;;6.70;3.70;;;;;;;15.57;100.00;100495.31;5036248;28;20072;-64
2023/08/06 08:18:08;;;;;;;6.70;3.55;;;;;;;15.58;100.00;100497.09;5036485;28;20471;-64
2023/08/06 08:20:35;;;;;;;5.57;3.50;;;;;;;15.52;100.00;100506.06;5036212;28;20037;-65
2023/08/06 08:23:01;;;;;;;5.45;3.47;;;;;;;15.47;100.00;100506.13;5035163;28;20033;-63
2023/08/06 08:25:27;;;;;;;6.65;3.60;;;;;;;15.49;100.00;100508.75;5036419;28;20100;-64
2023/08/06 08:27:54;;;;;;;7.10;3.55;;;;;;;15.50;100.00;100516.75;5036321;28;20032;-65
2023/08/06 08:30:20;;;;;;;7.13;3.65;;;;;;;15.47;100.00;100521.22;5036023;28;20356;-64
2023/08/06 08:32:45;;;;;;;5.70;3.50;;;;;;;15.43;100.00;100532.81;5035652;28;20036;-65
2023/08/06 08:35:12;;;;;;;6.93;3.45;;;;;;;15.44;100.00;100527.47;5035617;28;20448;-63
2023/08/06 08:37:38;;;;;;;5.22;3.40;;;;;;;15.48;100.00;100523.84;5035330;28;20030;-64
2023/08/06 08:40:06;;;;;;;6.45;3.17;;;;;;;15.52;100.00;100527.34;5034743;28;20451;-63
2023/08/06 08:42:31;;;;;;;5.95;3.30;;;;;;;15.50;100.00;100532.72;5035170;28;20112;-63
2023/08/06 08:44:57;;;;;;;6.88;3.10;;;;;;;15.55;100.00;100529.09;5035082;28;20432;-64
2023/08/06 08:47:24;;;;;;;5.60;3.08;;;;;;;15.57;100.00;100535.28;5035129;28;20033;-63
2023/08/06 08:49:53;;;;;;;5.18;2.92;;;;;;;15.60;100.00;100537.91;5035160;28;20519;-64
2023/08/06 08:52:21;;;;;;;6.47;3.00;;;;;;;15.62;100.00;100542.28;5034919;28;20095;-63
2023/08/06 08:54:51;;;;;;;4.30;2.60;;;;;;;15.60;100.00;100541.44;5035446;28;20108;-62
2023/08/06 08:57:17;;;;;;;4.38;2.70;;;;;;;15.57;100.00;100546.81;5032936;28;20026;-63
2023/08/06 08:59:42;;;;;;;5.43;2.65;;;;;;;15.60;100.00;100543.22;5034460;28;20037;-65
2023/08/06 09:02:12;;;;;;;7.75;2.85;;;;;;;15.59;100.00;100545.03;5034501;28;20565;-62
2023/08/06 09:04:40;;;;;;;8.48;2.70;;;;;;;15.60;100.00;100559.22;5035149;28;20107;-62
2023/08/06 09:07:07;;;;;;;4.38;2.60;;;;;;;15.60;100.00;100554.75;5029868;28;20386;-62
2023/08/06 09:09:37;;;;;;;6.05;2.70;;;;;;;15.63;100.00;100568.03;5034720;28;20101;-64
2023/08/06 09:12:10;;;;;;;6.97;2.70;;;;;;;15.63;100.00;100575.13;5034670;28;20095;-63
2023/08/06 09:14:35;;;;;;;4.65;2.72;;;;;;;15.68;100.00;100576.88;5033943;28;20036;-63
2023/08/06 09:17:01;;;;;;;6.00;2.80;;;;;;;15.71;100.00;100584.81;5034635;28;20030;-62
2023/08/06 09:19:26;;;;;;;4.78;2.72;;;;;;;15.70;100.00;100582.16;5034876;28;20075;-63
2023/08/06 09:21:55;;;;;;;7.53;3.33;;;;;;;15.70;100.00;100583.03;5034740;28;20088;-64
2023/08/06 09:24:20;;;;;;;6.10;3.10;;;;;;;15.68;100.00;100590.19;5034255;28;20439;-63
2023/08/06 09:26:46;;;;;;;6.40;3.25;;;;;;;15.65;100.00;100600.00;5034181;28;20026;-64
2023/08/06 09:29:11;;;;;;;5.90;3.10;;;;;;;15.68;100.00;100595.53;5034821;28;20057;-64
2023/08/06 09:31:53;;;;;;;8.10;3.33;;;;;;;15.72;100.00;100594.56;5034849;28;20104;-63
2023/08/06 09:34:21;;;;;;;8.38;3.45;;;;;;;15.71;100.00;100594.56;5034556;28;20434;-63
2023/08/06 09:36:50;;;;;;;10.48;3.63;;;;;;;15.71;100.00;100603.44;5033421;28;20041;-62
2023/08/06 09:39:18;;;;;;;6.85;3.50;;;;;;;15.74;100.00;100603.41;5033896;28;20021;-62
2023/08/06 09:41:44;;;;;;;6.50;3.30;;;;;;;15.81;100.00;100606.00;5034382;28;20064;-64
2023/08/06 09:44:18;;;;;;;7.25;3.47;;;;;;;15.82;100.00;100611.31;5016456;28;20453;-62
2023/08/06 09:46:51;;;;;;;5.75;3.38;;;;;;;15.78;100.00;100615.78;5034468;28;20113;-64
2023/08/06 09:49:19;;;;;;;7.63;3.60;;;;;;;15.80;100.00;100614.88;5035019;28;20056;-64
2023/08/06 09:51:46;;;;;;;6.15;3.53;;;;;;;15.81;100.00;100624.66;5038854;28;20069;-63
2023/08/06 09:54:15;;;;;;;5.93;3.20;;;;;;;15.84;100.00;100619.25;5053894;28;20470;-63
2023/08/06 09:56:42;;;;;;;6.10;3.20;;;;;;;15.85;100.00;100621.94;5053988;28;20071;-63
2023/08/06 09:59:08;;;;;;;6.40;3.50;;;;;;;15.86;100.00;100630.78;5035443;28;20036;-63
2023/08/06 10:01:35;;;;;;;8.20;3.55;;;;;;;15.84;100.00;100633.47;5054023;28;20037;-63
2023/08/06 10:04:05;;;;;;;5.47;3.20;;;;;;;15.82;100.00;100634.41;5053855;28;20441;-64
2023/08/06 10:06:38;;;;;;;5.22;3.28;;;;;;;15.81;100.00;100644.19;5035670;28;20033;-63
2023/08/06 10:09:07;;;;;;;7.70;3.35;;;;;;;15.84;100.00;100630.78;5036176;28;20057;-62
2023/08/06 10:11:33;;;;;;;7.45;3.20;;;;;;;15.84;100.00;100644.13;5050973;28;20021;-63
2023/08/06 10:14:12;;;;;;;7.93;3.50;;;;;;;15.88;100.00;100642.28;5053613;28;20025;-66
2023/08/06 10:16:40;;;;;;;7.97;3.20;;;;;;;15.90;100.00;100644.06;5051664;28;20032;-62
2023/08/06 10:19:09;;;;;;;6.65;3.50;;;;;;;15.93;100.00;100640.44;5053946;28;20074;-64
2023/08/06 10:21:35;;;;;;;7.45;3.20;;;;;;;15.90;100.00;100645.84;5050899;28;20068;-63
2023/08/06 10:24:02;;;;;;;6.32;3.40;;;;;;;15.89;100.00;100644.97;5042270;28;20025;-62
2023/08/06 10:26:30;;;;;;;8.13;3.08;;;;;;;15.91;100.00;100645.81;5052837;28;20032;-63
2023/08/06 10:28:57;;;;;;;6.28;3.50;;;;;;;15.91;100.00;100648.47;5053633;28;20036;-64
2023/08/06 10:31:55;;;;;;;5.72;3.60;;;;;;;15.92;100.00;100655.56;5035333;28;20584;-63
2023/08/06 10:34:21;;;;;;;7.47;3.45;;;;;;;15.89;100.00;100644.97;5046348;28;20452;-63
2023/08/06 10:36:46;;;;;;;6.43;3.47;;;;;;;15.95;100.00;100654.63;5053717;28;20029;-63
2023/08/06 10:39:15;;;;;;;8.68;3.50;;;;;;;15.97;100.00;100655.47;5053731;28;20134;-64
2023/08/06 10:41:43;;;;;;;6.20;3.80;;;;;;;15.97;100.00;100651.06;5053555;28;20036;-64
2023/08/06 10:44:10;;;;;;;5.30;3.50;;;;;;;15.99;100.00;100656.34;5053838;28;20390;-63
2023/08/06 10:46:36;;;;;;;7.10;3.38;;;;;;;15.97;100.00;100656.41;5037287;28;20479;-63
2023/08/06 10:49:04;;;;;;;7.40;3.92;;;;;;;16.02;100.00;100653.66;5033875;28;20025;-64
2023/08/06 10:51:30;;;;;;;7.18;3.40;;;;;;;16.02;100.00;100657.19;5035725;28;20024;-62
2023/08/06 10:53:55;;;;;;;7.20;3.70;;;;;;;16.03;100.00;100669.63;5053548;28;20029;-65
2023/08/06 10:56:22;;;;;;;6.10;3.45;;;;;;;16.02;100.00;100667.88;5053414;28;20414;-63
2023/08/06 10:58:49;;;;;;;6.53;3.20;;;;;;;16.09;100.00;100667.75;5053346;28;20033;-63
2023/08/06 11:01:16;;;;;;;7.70;3.70;;;;;;;16.06;100.00;100675.78;5053393;28;20024;-64
2023/08/06 11:03:42;;;;;;;5.20;2.95;;;;;;;16.05;100.00;100680.25;5053379;28;20029;-62
2023/08/06 11:06:08;;;;;;;7.05;2.83;;;;;;;16.05;100.00;100671.38;5053124;28;20498;-63
2023/08/06 11:08:36;;;;;;;4.35;2.63;;;;;;;16.07;100.00;100673.13;5052705;28;20025;-62
2023/08/06 11:11:13;;;;;;;5.43;2.85;;;;;;;16.13;100.00;100673.03;5053348;28;20175;-64
2023/08/06 11:13:44;;;;;;;5.18;2.75;;;;;;;16.14;100.00;100673.91;5053073;28;20118;-63